createdAt,value
2022-12-22T00:04:17.759Z,64.10
2022-12-22T00:16:39.771Z,73.10
2022-12-22T00:22:39.350Z,68.40
2022-12-22T00:28:23.791Z,60.60
2022-12-22T00:34:32.581Z,74.80
2022-12-22T00:40:25.929Z,69.10
2022-12-22T00:46:26.381Z,61.10
2022-12-22T00:52:19.827Z,76.60
2022-12-22T00:58:13.989Z,57.20
2022-12-22T01:04:02.799Z,67.10
2022-12-22T01:09:36.682Z,73.60
2022-12-22T01:15:22.730Z,72.10
2022-12-22T01:21:14.254Z,79.20
2022-12-22T01:26:50.158Z,65.70
2022-12-22T01:32:34.916Z,74.50
2022-12-22T01:38:14.739Z,73.00
2022-12-22T01:43:46.925Z,69.40
2022-12-22T01:49:23.415Z,67.80
2022-12-22T01:55:12.401Z,68.50
2022-12-22T02:00:41.824Z,73.40
2022-12-22T02:06:29.774Z,82.30
2022-12-22T02:12:17.420Z,80.30
2022-12-22T02:24:26.501Z,69.30
2022-12-22T02:30:03.142Z,65.30
2022-12-22T02:35:42.266Z,62.40
2022-12-22T02:41:40.855Z,74.90
2022-12-22T02:47:35.774Z,77.20
2022-12-22T02:53:17.622Z,59.50
2022-12-22T02:58:53.519Z,61.70
2022-12-22T03:04:18.251Z,59.90
2022-12-22T03:09:43.136Z,53.40
2022-12-22T03:15:08.084Z,58.70
2022-12-22T03:20:33.069Z,58.40
2022-12-22T03:25:54.041Z,49.50
2022-12-22T03:31:05.121Z,48.40
2022-12-22T03:36:12.835Z,47.10
2022-12-22T03:41:33.690Z,47.10
2022-12-22T03:46:40.796Z,42.10
2022-12-22T03:51:49.387Z,38.30
2022-12-22T03:56:56.597Z,29.90
2022-12-22T04:02:03.592Z,28.20
2022-12-22T04:07:10.757Z,32.80
2022-12-22T04:12:40.868Z,30.30
2022-12-22T04:17:47.787Z,32.30
2022-12-22T04:22:55.573Z,38.00
2022-12-22T04:28:02.480Z,36.50
2022-12-22T04:33:09.315Z,36.10
2022-12-22T04:38:16.369Z,34.00
2022-12-22T04:43:23.364Z,37.20
2022-12-22T04:48:33.210Z,30.80
2022-12-22T04:53:40.268Z,28.90
2022-12-22T04:58:47.731Z,27.30
2022-12-22T05:03:54.738Z,27.90
2022-12-22T05:09:01.950Z,28.70
2022-12-22T05:14:09.157Z,23.70
2022-12-22T05:19:16.179Z,27.00
2022-12-22T05:24:23.197Z,26.80
2022-12-22T05:29:30.132Z,29.50
2022-12-22T05:34:37.177Z,27.10
2022-12-22T05:39:44.193Z,29.40
2022-12-22T05:44:51.168Z,29.30
2022-12-22T05:49:58.163Z,30.10
2022-12-22T05:55:05.378Z,28.20
2022-12-22T06:00:16.659Z,39.00
2022-12-22T06:05:24.203Z,32.90
2022-12-22T06:10:31.335Z,43.30
2022-12-22T06:15:38.269Z,49.10
2022-12-22T06:20:46.331Z,53.40
2022-12-22T06:25:59.007Z,54.40
2022-12-22T06:31:06.055Z,85.90
2022-12-22T06:36:13.664Z,76.70
2022-12-22T06:41:41.043Z,72.20
2022-12-22T06:46:48.137Z,75.80
2022-12-22T06:51:55.197Z,85.60
2022-12-22T06:57:02.484Z,64.70
2022-12-22T07:02:11.179Z,65.10
2022-12-22T07:07:18.377Z,68.80
2022-12-22T07:12:26.253Z,56.40
2022-12-22T07:17:33.228Z,51.90
2022-12-22T07:22:40.496Z,54.50
2022-12-22T07:27:47.405Z,74.70
2022-12-22T07:32:54.444Z,59.80
2022-12-22T07:38:01.813Z,64.00
2022-12-22T07:43:08.842Z,63.50
2022-12-22T07:48:29.751Z,62.10
2022-12-22T07:53:36.997Z,58.70
2022-12-22T07:58:44.155Z,86.30
2022-12-22T08:03:51.168Z,77.60
2022-12-22T08:08:58.369Z,66.10
2022-12-22T08:14:05.274Z,72.60
2022-12-22T08:19:12.827Z,41.40
2022-12-22T08:24:19.757Z,52.10
2022-12-22T08:29:30.888Z,40.60
2022-12-22T08:34:38.003Z,47.40
2022-12-22T08:39:47.638Z,41.60
2022-12-22T08:44:54.667Z,36.20
2022-12-22T08:50:01.660Z,41.50
2022-12-22T08:55:10.501Z,33.00
2022-12-22T09:00:18.628Z,37.10
2022-12-22T09:05:26.141Z,33.90
2022-12-22T09:10:33.191Z,36.80
2022-12-22T09:15:40.766Z,36.30
2022-12-22T09:20:47.808Z,35.10
2022-12-22T09:25:55.200Z,38.00
2022-12-22T09:31:02.078Z,42.40
2022-12-22T09:36:11.837Z,41.80
2022-12-22T09:41:23.681Z,42.60
2022-12-22T09:46:34.216Z,33.80
2022-12-22T09:51:49.587Z,109.10
2022-12-22T09:56:57.806Z,43.50
2022-12-22T10:02:21.987Z,36.10
2022-12-22T10:07:35.424Z,35.60
2022-12-22T10:12:43.517Z,45.00
2022-12-22T10:17:54.054Z,37.50
2022-12-22T10:23:06.969Z,56.70
2022-12-22T10:28:22.124Z,50.30
2022-12-22T10:33:41.208Z,38.00
2022-12-22T10:44:10.392Z,61.30
2022-12-22T10:49:22.565Z,42.90
2022-12-22T10:59:49.013Z,27.30
2022-12-22T11:05:02.769Z,98.00
2022-12-22T11:10:25.875Z,43.40
2022-12-22T11:15:41.324Z,28.10
2022-12-22T11:21:04.685Z,24.90
2022-12-22T11:26:22.108Z,41.00
2022-12-22T11:31:45.826Z,30.50
2022-12-22T11:37:05.556Z,29.60
2022-12-22T11:42:31.301Z,22.00
2022-12-22T11:48:15.156Z,46.60
2022-12-22T11:54:16.363Z,22.70
2022-12-22T11:59:43.761Z,30.30
2022-12-22T12:05:19.629Z,25.80
2022-12-22T12:10:46.761Z,54.70
2022-12-22T12:16:15.658Z,91.80
2022-12-22T12:21:29.367Z,118.10
2022-12-22T12:27:12.859Z,47.40
2022-12-22T12:32:31.519Z,65.70
2022-12-22T12:37:43.416Z,88.50
2022-12-22T12:42:52.345Z,45.70
2022-12-22T12:48:45.018Z,54.10
2022-12-22T12:54:25.016Z,55.10
2022-12-22T12:59:51.847Z,49.10
2022-12-22T13:05:28.584Z,63.20
2022-12-22T13:10:40.457Z,103.10
2022-12-22T13:21:18.619Z,30.90
2022-12-22T13:26:27.337Z,39.30
2022-12-22T13:31:37.744Z,64.10
2022-12-22T13:36:47.022Z,33.70
2022-12-22T13:56:08.952Z,37.60
2022-12-22T14:01:21.557Z,32.50
2022-12-22T14:06:31.399Z,68.60
2022-12-22T14:11:38.528Z,65.80
2022-12-22T14:16:48.663Z,71.40
2022-12-22T14:22:04.918Z,58.00
2022-12-22T14:27:23.041Z,98.40
2022-12-22T14:32:38.706Z,47.50
2022-12-22T14:37:45.714Z,66.90
2022-12-22T14:42:52.912Z,59.60
2022-12-22T14:48:00.380Z,130.70
2022-12-22T14:53:08.420Z,114.90
2022-12-22T14:58:18.882Z,195.50
2022-12-22T15:03:40.589Z,152.90
2022-12-22T15:09:10.320Z,274.90
2022-12-22T15:14:20.320Z,188.60
2022-12-22T15:19:34.270Z,192.90
2022-12-22T15:24:43.757Z,255.90
2022-12-22T15:29:50.855Z,196.20
2022-12-22T15:34:57.976Z,70.40
2022-12-22T15:40:05.542Z,64.20
2022-12-22T15:45:13.646Z,141.80
2022-12-22T15:50:25.158Z,39.10
2022-12-22T15:55:32.888Z,160.60
2022-12-22T16:00:39.972Z,83.20
2022-12-22T16:05:49.216Z,99.20
2022-12-22T16:10:56.218Z,164.90
2022-12-22T16:16:03.634Z,68.50
2022-12-22T16:21:18.694Z,52.80
2022-12-22T16:26:25.641Z,39.40
2022-12-22T16:31:32.827Z,43.50
2022-12-22T16:36:40.664Z,53.20
2022-12-22T16:41:47.726Z,54.40
2022-12-22T16:47:10.842Z,44.80
2022-12-22T16:52:23.054Z,63.90
2022-12-22T16:57:30.045Z,61.10
2022-12-22T17:02:37.866Z,57.10
2022-12-22T17:07:45.757Z,54.90
2022-12-22T17:13:00.041Z,109.90
2022-12-22T17:18:15.277Z,63.60
2022-12-22T17:23:32.837Z,87.20
2022-12-22T17:28:41.088Z,59.00
2022-12-22T17:33:48.379Z,56.70
2022-12-22T17:38:55.736Z,48.70
2022-12-22T17:44:02.767Z,39.70
2022-12-22T17:49:09.920Z,37.00
2022-12-22T17:54:24.783Z,45.70
2022-12-22T17:59:31.959Z,61.40
2022-12-22T18:04:38.872Z,49.60
2022-12-22T18:09:46.763Z,38.50
2022-12-22T18:14:54.242Z,26.30
2022-12-22T18:20:01.232Z,22.20
2022-12-22T18:25:18.833Z,16.80
2022-12-22T18:30:28.092Z,27.40
2022-12-22T18:35:42.695Z,23.10
2022-12-22T18:40:55.957Z,23.10
2022-12-22T18:46:03.042Z,28.70
2022-12-22T18:51:16.054Z,25.40
2022-12-22T18:56:23.065Z,21.90
2022-12-22T19:01:30.380Z,19.70
2022-12-22T19:06:38.054Z,16.50
2022-12-22T19:11:45.793Z,16.00
2022-12-22T19:16:52.820Z,16.30
2022-12-22T19:21:59.846Z,16.80
2022-12-22T19:27:07.809Z,19.10
2022-12-22T19:32:25.648Z,16.50
2022-12-22T19:37:32.652Z,11.90
2022-12-22T19:42:40.950Z,13.00
2022-12-22T19:47:48.642Z,14.70
2022-12-22T19:52:57.606Z,18.00
2022-12-22T19:58:05.710Z,13.40
2022-12-22T20:08:23.150Z,10.30
2022-12-22T20:13:34.154Z,11.40
2022-12-22T20:19:12.702Z,14.80
2022-12-22T20:24:25.861Z,14.80
2022-12-22T20:29:33.411Z,12.60
2022-12-22T20:34:42.122Z,14.00
2022-12-22T20:39:49.742Z,16.80
2022-12-22T20:45:03.914Z,15.20
2022-12-22T20:50:29.248Z,16.00
2022-12-22T20:55:41.627Z,19.10
2022-12-22T21:00:49.384Z,13.20
2022-12-22T21:05:56.937Z,15.40
2022-12-22T21:11:07.682Z,16.40
2022-12-22T21:16:24.199Z,13.70
2022-12-22T21:21:31.779Z,16.90
2022-12-22T21:26:43.043Z,16.50
2022-12-22T21:31:50.588Z,18.90
2022-12-22T21:37:02.856Z,14.90
2022-12-22T21:42:14.997Z,13.30
2022-12-22T21:47:22.469Z,18.60
2022-12-22T21:52:29.668Z,15.40
2022-12-22T21:57:37.021Z,16.80
2022-12-22T22:02:44.904Z,14.60
2022-12-22T22:07:52.330Z,13.60
2022-12-22T22:13:00.371Z,11.70
2022-12-22T22:18:08.006Z,9.60
2022-12-22T22:23:16.435Z,11.60
2022-12-22T22:28:23.454Z,11.50
2022-12-22T22:33:31.252Z,8.30
2022-12-22T22:38:38.619Z,14.90
2022-12-22T22:43:45.450Z,10.90
2022-12-22T22:48:52.425Z,14.00
2022-12-22T22:53:59.402Z,18.40
2022-12-22T22:59:29.912Z,17.80
2022-12-22T23:04:51.223Z,19.80
2022-12-22T23:10:08.418Z,18.20
2022-12-22T23:15:53.462Z,20.60
2022-12-22T23:21:29.952Z,17.90
2022-12-22T23:26:52.573Z,15.60
2022-12-22T23:32:06.449Z,15.20
2022-12-22T23:42:31.154Z,13.80
2022-12-22T23:47:39.866Z,16.50
2022-12-22T23:52:49.308Z,18.10
2022-12-22T23:57:56.622Z,18.40
